sensor_id;sensor_type;location;lat;lon;timestamp;P1;durP1;ratioP1;P2;durP2;ratioP2
48789;SDS011;41718;51.980;5.734;2023-07-28T00:00:12;6.82;;;6.13;;
48789;SDS011;41718;51.980;5.734;2023-07-28T00:05:14;7.55;;;6.05;;
48789;SDS011;41718;51.980;5.734;2023-07-28T00:10:15;8.05;;;6.28;;
48789;SDS011;41718;51.980;5.734;2023-07-28T00:15:17;6.30;;;5.20;;
48789;SDS011;41718;51.980;5.734;2023-07-28T00:20:18;6.72;;;5.60;;
48789;SDS011;41718;51.980;5.734;2023-07-28T00:25:20;6.60;;;5.93;;
48789;SDS011;41718;51.980;5.734;2023-07-28T00:30:23;6.15;;;4.80;;
48789;SDS011;41718;51.980;5.734;2023-07-28T00:35:25;6.45;;;5.70;;
48789;SDS011;41718;51.980;5.734;2023-07-28T00:40:26;8.55;;;5.20;;
48789;SDS011;41718;51.980;5.734;2023-07-28T00:45:28;5.72;;;5.13;;
48789;SDS011;41718;51.980;5.734;2023-07-28T00:50:32;7.63;;;6.22;;
48789;SDS011;41718;51.980;5.734;2023-07-28T00:55:33;8.55;;;6.28;;
48789;SDS011;41718;51.980;5.734;2023-07-28T01:00:35;8.80;;;5.50;;
48789;SDS011;41718;51.980;5.734;2023-07-28T01:05:59;6.88;;;5.75;;
48789;SDS011;41718;51.980;5.734;2023-07-28T01:11:11;7.82;;;5.63;;
48789;SDS011;41718;51.980;5.734;2023-07-28T01:16:12;7.53;;;5.88;;
48789;SDS011;41718;51.980;5.734;2023-07-28T01:21:17;8.88;;;6.15;;
48789;SDS011;41718;51.980;5.734;2023-07-28T01:26:35;8.82;;;6.55;;
48789;SDS011;41718;51.980;5.734;2023-07-28T01:31:39;9.75;;;6.93;;
48789;SDS011;41718;51.980;5.734;2023-07-28T01:36:40;8.27;;;7.35;;
48789;SDS011;41718;51.980;5.734;2023-07-28T01:41:42;9.13;;;6.53;;
48789;SDS011;41718;51.980;5.734;2023-07-28T01:46:45;10.43;;;7.30;;
48789;SDS011;41718;51.980;5.734;2023-07-28T01:51:47;9.73;;;7.13;;
48789;SDS011;41718;51.980;5.734;2023-07-28T01:56:48;14.27;;;7.25;;
48789;SDS011;41718;51.980;5.734;2023-07-28T02:01:50;7.40;;;5.68;;
48789;SDS011;41718;51.980;5.734;2023-07-28T02:06:51;8.68;;;6.30;;
48789;SDS011;41718;51.980;5.734;2023-07-28T02:11:53;10.48;;;6.95;;
48789;SDS011;41718;51.980;5.734;2023-07-28T02:16:54;11.05;;;7.00;;
48789;SDS011;41718;51.980;5.734;2023-07-28T02:21:56;8.85;;;5.10;;
48789;SDS011;41718;51.980;5.734;2023-07-28T02:26:57;10.85;;;6.60;;
48789;SDS011;41718;51.980;5.734;2023-07-28T02:31:59;11.13;;;7.85;;
48789;SDS011;41718;51.980;5.734;2023-07-28T02:37:00;13.85;;;8.93;;
48789;SDS011;41718;51.980;5.734;2023-07-28T02:42:02;14.90;;;8.40;;
48789;SDS011;41718;51.980;5.734;2023-07-28T02:47:04;12.30;;;8.27;;
48789;SDS011;41718;51.980;5.734;2023-07-28T02:52:06;16.85;;;9.25;;
48789;SDS011;41718;51.980;5.734;2023-07-28T02:57:08;17.48;;;7.88;;
48789;SDS011;41718;51.980;5.734;2023-07-28T03:02:09;15.88;;;9.68;;
48789;SDS011;41718;51.980;5.734;2023-07-28T03:07:11;13.40;;;8.48;;
48789;SDS011;41718;51.980;5.734;2023-07-28T03:12:13;13.40;;;8.77;;
48789;SDS011;41718;51.980;5.734;2023-07-28T03:17:14;15.57;;;10.82;;
48789;SDS011;41718;51.980;5.734;2023-07-28T03:22:16;17.65;;;10.27;;
48789;SDS011;41718;51.980;5.734;2023-07-28T03:27:17;23.35;;;12.80;;
48789;SDS011;41718;51.980;5.734;2023-07-28T03:32:19;16.10;;;10.43;;
48789;SDS011;41718;51.980;5.734;2023-07-28T03:37:20;20.23;;;12.77;;
48789;SDS011;41718;51.980;5.734;2023-07-28T03:42:22;18.45;;;11.25;;
48789;SDS011;41718;51.980;5.734;2023-07-28T03:47:24;21.90;;;14.05;;
48789;SDS011;41718;51.980;5.734;2023-07-28T03:52:25;21.15;;;11.68;;
48789;SDS011;41718;51.980;5.734;2023-07-28T03:57:27;17.45;;;11.02;;
48789;SDS011;41718;51.980;5.734;2023-07-28T04:02:28;25.02;;;14.65;;
48789;SDS011;41718;51.980;5.734;2023-07-28T04:07:30;22.70;;;13.93;;
48789;SDS011;41718;51.980;5.734;2023-07-28T04:12:31;24.08;;;13.77;;
48789;SDS011;41718;51.980;5.734;2023-07-28T04:17:33;23.90;;;13.40;;
48789;SDS011;41718;51.980;5.734;2023-07-28T04:22:34;24.08;;;12.57;;
48789;SDS011;41718;51.980;5.734;2023-07-28T04:27:36;26.23;;;14.00;;
48789;SDS011;41718;51.980;5.734;2023-07-28T04:32:37;22.23;;;14.40;;
48789;SDS011;41718;51.980;5.734;2023-07-28T04:37:39;27.17;;;15.50;;
48789;SDS011;41718;51.980;5.734;2023-07-28T04:42:41;20.88;;;12.70;;
48789;SDS011;41718;51.980;5.734;2023-07-28T04:47:42;25.05;;;13.98;;
48789;SDS011;41718;51.980;5.734;2023-07-28T04:52:44;25.48;;;13.93;;
48789;SDS011;41718;51.980;5.734;2023-07-28T04:57:45;45.83;;;18.20;;
48789;SDS011;41718;51.980;5.734;2023-07-28T05:02:47;30.27;;;17.35;;
48789;SDS011;41718;51.980;5.734;2023-07-28T05:07:49;31.38;;;18.23;;
48789;SDS011;41718;51.980;5.734;2023-07-28T05:12:51;36.80;;;17.35;;
48789;SDS011;41718;51.980;5.734;2023-07-28T05:17:52;31.13;;;18.08;;
48789;SDS011;41718;51.980;5.734;2023-07-28T05:22:54;24.88;;;14.70;;
48789;SDS011;41718;51.980;5.734;2023-07-28T05:27:56;22.45;;;13.52;;
48789;SDS011;41718;51.980;5.734;2023-07-28T05:32:57;27.67;;;15.50;;
48789;SDS011;41718;51.980;5.734;2023-07-28T05:37:59;26.50;;;14.93;;
48789;SDS011;41718;51.980;5.734;2023-07-28T05:43:01;22.25;;;15.27;;
48789;SDS011;41718;51.980;5.734;2023-07-28T05:48:02;26.67;;;15.55;;
48789;SDS011;41718;51.980;5.734;2023-07-28T05:53:04;22.00;;;14.63;;
48789;SDS011;41718;51.980;5.734;2023-07-28T05:58:05;28.30;;;15.82;;
48789;SDS011;41718;51.980;5.734;2023-07-28T06:03:09;27.75;;;17.15;;
48789;SDS011;41718;51.980;5.734;2023-07-28T06:08:13;25.77;;;16.92;;
48789;SDS011;41718;51.980;5.734;2023-07-28T06:13:15;25.80;;;16.65;;
48789;SDS011;41718;51.980;5.734;2023-07-28T06:18:16;26.10;;;16.33;;
48789;SDS011;41718;51.980;5.734;2023-07-28T06:23:18;23.88;;;15.48;;
48789;SDS011;41718;51.980;5.734;2023-07-28T06:28:19;24.05;;;16.05;;
48789;SDS011;41718;51.980;5.734;2023-07-28T06:33:21;27.83;;;16.02;;
48789;SDS011;41718;51.980;5.734;2023-07-28T06:38:23;28.10;;;17.08;;
48789;SDS011;41718;51.980;5.734;2023-07-28T06:43:24;25.88;;;15.90;;
48789;SDS011;41718;51.980;5.734;2023-07-28T06:48:26;23.70;;;16.13;;
48789;SDS011;41718;51.980;5.734;2023-07-28T06:53:27;26.63;;;15.60;;
48789;SDS011;41718;51.980;5.734;2023-07-28T06:58:29;30.45;;;16.02;;
48789;SDS011;41718;51.980;5.734;2023-07-28T07:03:31;26.92;;;15.65;;
48789;SDS011;41718;51.980;5.734;2023-07-28T07:08:32;28.77;;;18.00;;
48789;SDS011;41718;51.980;5.734;2023-07-28T07:13:34;28.38;;;16.77;;
48789;SDS011;41718;51.980;5.734;2023-07-28T07:18:35;25.83;;;15.73;;
48789;SDS011;41718;51.980;5.734;2023-07-28T07:23:37;24.13;;;14.52;;
48789;SDS011;41718;51.980;5.734;2023-07-28T07:28:38;24.27;;;15.27;;
48789;SDS011;41718;51.980;5.734;2023-07-28T07:33:40;27.85;;;15.20;;
48789;SDS011;41718;51.980;5.734;2023-07-28T07:38:43;22.17;;;13.68;;
48789;SDS011;41718;51.980;5.734;2023-07-28T07:43:48;20.27;;;14.03;;
48789;SDS011;41718;51.980;5.734;2023-07-28T07:48:50;20.15;;;12.55;;
48789;SDS011;41718;51.980;5.734;2023-07-28T07:53:52;22.48;;;13.93;;
48789;SDS011;41718;51.980;5.734;2023-07-28T07:58:54;19.05;;;12.30;;
48789;SDS011;41718;51.980;5.734;2023-07-28T08:03:55;18.27;;;12.30;;
48789;SDS011;41718;51.980;5.734;2023-07-28T08:08:57;21.48;;;11.77;;
48789;SDS011;41718;51.980;5.734;2023-07-28T08:14:00;16.45;;;10.93;;
48789;SDS011;41718;51.980;5.734;2023-07-28T08:19:02;18.25;;;11.65;;
48789;SDS011;41718;51.980;5.734;2023-07-28T08:24:03;16.42;;;11.20;;
48789;SDS011;41718;51.980;5.734;2023-07-28T08:29:05;16.77;;;11.57;;
48789;SDS011;41718;51.980;5.734;2023-07-28T08:34:07;15.13;;;11.20;;
48789;SDS011;41718;51.980;5.734;2023-07-28T08:39:09;17.00;;;11.75;;
48789;SDS011;41718;51.980;5.734;2023-07-28T08:44:10;19.67;;;11.68;;
48789;SDS011;41718;51.980;5.734;2023-07-28T08:49:12;16.02;;;11.38;;
48789;SDS011;41718;51.980;5.734;2023-07-28T08:54:14;16.80;;;10.05;;
48789;SDS011;41718;51.980;5.734;2023-07-28T08:59:24;19.17;;;11.07;;
48789;SDS011;41718;51.980;5.734;2023-07-28T09:04:29;20.35;;;10.70;;
48789;SDS011;41718;51.980;5.734;2023-07-28T09:09:31;13.18;;;9.40;;
48789;SDS011;41718;51.980;5.734;2023-07-28T09:14:37;15.18;;;10.20;;
48789;SDS011;41718;51.980;5.734;2023-07-28T09:24:54;15.25;;;10.00;;
48789;SDS011;41718;51.980;5.734;2023-07-28T09:29:55;16.58;;;10.73;;
48789;SDS011;41718;51.980;5.734;2023-07-28T09:40:12;19.55;;;11.50;;
48789;SDS011;41718;51.980;5.734;2023-07-28T09:45:16;13.48;;;10.27;;
48789;SDS011;41718;51.980;5.734;2023-07-28T09:50:40;14.15;;;9.38;;
48789;SDS011;41718;51.980;5.734;2023-07-28T09:55:42;16.98;;;11.75;;
48789;SDS011;41718;51.980;5.734;2023-07-28T10:00:45;14.85;;;11.18;;
48789;SDS011;41718;51.980;5.734;2023-07-28T10:05:47;13.23;;;10.10;;
48789;SDS011;41718;51.980;5.734;2023-07-28T10:10:50;14.55;;;10.23;;
48789;SDS011;41718;51.980;5.734;2023-07-28T10:15:53;12.70;;;8.85;;
48789;SDS011;41718;51.980;5.734;2023-07-28T10:26:14;13.85;;;10.80;;
48789;SDS011;41718;51.980;5.734;2023-07-28T10:31:32;13.02;;;9.35;;
48789;SDS011;41718;51.980;5.734;2023-07-28T10:36:35;12.10;;;8.40;;
48789;SDS011;41718;51.980;5.734;2023-07-28T10:41:59;10.30;;;8.77;;
48789;SDS011;41718;51.980;5.734;2023-07-28T10:52:25;11.85;;;9.52;;
48789;SDS011;41718;51.980;5.734;2023-07-28T10:57:28;18.50;;;10.93;;
48789;SDS011;41718;51.980;5.734;2023-07-28T11:02:30;13.13;;;10.23;;
48789;SDS011;41718;51.980;5.734;2023-07-28T11:07:44;10.50;;;7.63;;
48789;SDS011;41718;51.980;5.734;2023-07-28T11:12:53;11.52;;;7.65;;
48789;SDS011;41718;51.980;5.734;2023-07-28T11:17:56;10.80;;;9.18;;
48789;SDS011;41718;51.980;5.734;2023-07-28T11:22:59;13.82;;;9.98;;
48789;SDS011;41718;51.980;5.734;2023-07-28T11:28:04;13.77;;;10.25;;
48789;SDS011;41718;51.980;5.734;2023-07-28T11:33:10;15.18;;;10.88;;
48789;SDS011;41718;51.980;5.734;2023-07-28T11:38:14;15.23;;;10.13;;
48789;SDS011;41718;51.980;5.734;2023-07-28T11:43:17;15.13;;;11.15;;
48789;SDS011;41718;51.980;5.734;2023-07-28T11:48:19;12.23;;;9.73;;
48789;SDS011;41718;51.980;5.734;2023-07-28T11:53:21;13.75;;;9.60;;
48789;SDS011;41718;51.980;5.734;2023-07-28T11:58:26;12.18;;;8.75;;
48789;SDS011;41718;51.980;5.734;2023-07-28T12:03:38;13.80;;;9.20;;
48789;SDS011;41718;51.980;5.734;2023-07-28T12:08:40;10.70;;;8.82;;
48789;SDS011;41718;51.980;5.734;2023-07-28T12:13:50;10.13;;;8.65;;
48789;SDS011;41718;51.980;5.734;2023-07-28T12:18:57;13.82;;;9.52;;
48789;SDS011;41718;51.980;5.734;2023-07-28T12:23:59;10.98;;;8.75;;
48789;SDS011;41718;51.980;5.734;2023-07-28T12:29:06;12.27;;;8.77;;
48789;SDS011;41718;51.980;5.734;2023-07-28T12:34:12;10.00;;;8.77;;
48789;SDS011;41718;51.980;5.734;2023-07-28T12:39:26;9.35;;;8.45;;
48789;SDS011;41718;51.980;5.734;2023-07-28T12:44:33;11.43;;;7.20;;
48789;SDS011;41718;51.980;5.734;2023-07-28T12:49:47;9.88;;;7.60;;
48789;SDS011;41718;51.980;5.734;2023-07-28T12:54:53;9.60;;;7.88;;
48789;SDS011;41718;51.980;5.734;2023-07-28T13:00:15;12.77;;;8.50;;
48789;SDS011;41718;51.980;5.734;2023-07-28T13:05:20;10.18;;;8.13;;
48789;SDS011;41718;51.980;5.734;2023-07-28T13:10:27;8.02;;;6.80;;
48789;SDS011;41718;51.980;5.734;2023-07-28T13:15:31;9.25;;;6.35;;
48789;SDS011;41718;51.980;5.734;2023-07-28T13:20:33;8.77;;;6.32;;
48789;SDS011;41718;51.980;5.734;2023-07-28T13:25:34;7.93;;;5.10;;
48789;SDS011;41718;51.980;5.734;2023-07-28T13:30:36;9.52;;;6.63;;
48789;SDS011;41718;51.980;5.734;2023-07-28T13:35:38;8.27;;;5.82;;
48789;SDS011;41718;51.980;5.734;2023-07-28T13:41:01;6.72;;;5.18;;
48789;SDS011;41718;51.980;5.734;2023-07-28T13:46:06;6.30;;;5.18;;
48789;SDS011;41718;51.980;5.734;2023-07-28T13:51:13;5.32;;;4.80;;
48789;SDS011;41718;51.980;5.734;2023-07-28T13:56:18;5.72;;;5.15;;
48789;SDS011;41718;51.980;5.734;2023-07-28T14:01:22;6.18;;;4.88;;
48789;SDS011;41718;51.980;5.734;2023-07-28T14:06:26;6.10;;;3.92;;
48789;SDS011;41718;51.980;5.734;2023-07-28T14:11:28;5.68;;;3.88;;
48789;SDS011;41718;51.980;5.734;2023-07-28T14:16:32;4.97;;;4.47;;
48789;SDS011;41718;51.980;5.734;2023-07-28T14:21:34;5.82;;;4.60;;
48789;SDS011;41718;51.980;5.734;2023-07-28T14:26:40;4.60;;;3.83;;
48789;SDS011;41718;51.980;5.734;2023-07-28T14:31:42;5.35;;;4.20;;
48789;SDS011;41718;51.980;5.734;2023-07-28T14:36:44;6.43;;;4.10;;
48789;SDS011;41718;51.980;5.734;2023-07-28T14:41:51;4.47;;;3.63;;
48789;SDS011;41718;51.980;5.734;2023-07-28T14:46:55;4.80;;;3.25;;
48789;SDS011;41718;51.980;5.734;2023-07-28T14:51:57;3.75;;;3.35;;
48789;SDS011;41718;51.980;5.734;2023-07-28T15:02:41;4.68;;;3.78;;
48789;SDS011;41718;51.980;5.734;2023-07-28T15:07:52;5.40;;;3.55;;
48789;SDS011;41718;51.980;5.734;2023-07-28T15:13:01;5.85;;;3.90;;
48789;SDS011;41718;51.980;5.734;2023-07-28T15:18:08;4.45;;;4.05;;
48789;SDS011;41718;51.980;5.734;2023-07-28T15:28:26;5.40;;;4.82;;
48789;SDS011;41718;51.980;5.734;2023-07-28T15:33:37;7.50;;;4.75;;
48789;SDS011;41718;51.980;5.734;2023-07-28T15:38:44;9.02;;;5.93;;
48789;SDS011;41718;51.980;5.734;2023-07-28T15:43:49;7.68;;;5.68;;
48789;SDS011;41718;51.980;5.734;2023-07-28T15:48:52;5.18;;;4.13;;
48789;SDS011;41718;51.980;5.734;2023-07-28T15:53:56;7.22;;;5.70;;
48789;SDS011;41718;51.980;5.734;2023-07-28T15:59:05;4.88;;;4.40;;
48789;SDS011;41718;51.980;5.734;2023-07-28T16:04:06;6.50;;;4.78;;
48789;SDS011;41718;51.980;5.734;2023-07-28T16:09:11;11.13;;;4.75;;
48789;SDS011;41718;51.980;5.734;2023-07-28T16:14:24;5.68;;;4.60;;
48789;SDS011;41718;51.980;5.734;2023-07-28T16:19:35;6.97;;;4.47;;
48789;SDS011;41718;51.980;5.734;2023-07-28T16:24:37;7.35;;;5.80;;
48789;SDS011;41718;51.980;5.734;2023-07-28T16:29:39;5.68;;;4.53;;
48789;SDS011;41718;51.980;5.734;2023-07-28T16:34:41;6.57;;;4.45;;
48789;SDS011;41718;51.980;5.734;2023-07-28T16:39:45;4.72;;;4.18;;
48789;SDS011;41718;51.980;5.734;2023-07-28T16:44:46;4.50;;;4.07;;
48789;SDS011;41718;51.980;5.734;2023-07-28T16:49:48;3.90;;;3.60;;
48789;SDS011;41718;51.980;5.734;2023-07-28T16:54:50;5.10;;;4.60;;
48789;SDS011;41718;51.980;5.734;2023-07-28T16:59:52;7.32;;;5.30;;
48789;SDS011;41718;51.980;5.734;2023-07-28T17:04:57;6.60;;;4.03;;
48789;SDS011;41718;51.980;5.734;2023-07-28T17:09:58;5.03;;;4.22;;
48789;SDS011;41718;51.980;5.734;2023-07-28T17:15:00;7.05;;;4.15;;
48789;SDS011;41718;51.980;5.734;2023-07-28T17:20:03;5.85;;;3.60;;
48789;SDS011;41718;51.980;5.734;2023-07-28T17:25:05;5.55;;;3.53;;
48789;SDS011;41718;51.980;5.734;2023-07-28T17:30:10;3.25;;;2.97;;
48789;SDS011;41718;51.980;5.734;2023-07-28T17:35:12;4.07;;;2.85;;
48789;SDS011;41718;51.980;5.734;2023-07-28T17:40:14;4.95;;;3.40;;
48789;SDS011;41718;51.980;5.734;2023-07-28T17:45:16;4.45;;;3.10;;
48789;SDS011;41718;51.980;5.734;2023-07-28T17:50:18;3.55;;;2.63;;
48789;SDS011;41718;51.980;5.734;2023-07-28T17:55:22;4.18;;;2.45;;
48789;SDS011;41718;51.980;5.734;2023-07-28T18:00:23;3.33;;;2.30;;
48789;SDS011;41718;51.980;5.734;2023-07-28T18:05:31;5.88;;;2.50;;
48789;SDS011;41718;51.980;5.734;2023-07-28T18:10:41;3.85;;;1.80;;
48789;SDS011;41718;51.980;5.734;2023-07-28T18:15:46;3.70;;;2.17;;
48789;SDS011;41718;51.980;5.734;2023-07-28T18:20:51;3.08;;;1.45;;
48789;SDS011;41718;51.980;5.734;2023-07-28T18:25:53;5.05;;;2.30;;
48789;SDS011;41718;51.980;5.734;2023-07-28T18:30:58;2.95;;;2.30;;
48789;SDS011;41718;51.980;5.734;2023-07-28T18:36:00;2.83;;;2.25;;
48789;SDS011;41718;51.980;5.734;2023-07-28T18:41:04;2.15;;;1.80;;
48789;SDS011;41718;51.980;5.734;2023-07-28T18:46:06;3.88;;;2.30;;
48789;SDS011;41718;51.980;5.734;2023-07-28T18:51:08;3.97;;;2.88;;
48789;SDS011;41718;51.980;5.734;2023-07-28T18:56:17;3.17;;;2.28;;
48789;SDS011;41718;51.980;5.734;2023-07-28T19:01:19;3.45;;;2.85;;
48789;SDS011;41718;51.980;5.734;2023-07-28T19:06:20;3.60;;;1.95;;
48789;SDS011;41718;51.980;5.734;2023-07-28T19:11:22;1.90;;;1.70;;
48789;SDS011;41718;51.980;5.734;2023-07-28T19:16:24;4.55;;;2.00;;
48789;SDS011;41718;51.980;5.734;2023-07-28T19:21:29;2.60;;;2.40;;
48789;SDS011;41718;51.980;5.734;2023-07-28T19:26:31;1.73;;;1.60;;
48789;SDS011;41718;51.980;5.734;2023-07-28T19:31:33;2.13;;;1.55;;
48789;SDS011;41718;51.980;5.734;2023-07-28T19:36:36;2.13;;;1.92;;
48789;SDS011;41718;51.980;5.734;2023-07-28T19:41:39;3.10;;;2.10;;
48789;SDS011;41718;51.980;5.734;2023-07-28T19:46:41;2.65;;;2.00;;
48789;SDS011;41718;51.980;5.734;2023-07-28T19:51:42;1.95;;;1.73;;
48789;SDS011;41718;51.980;5.734;2023-07-28T19:56:44;2.50;;;2.08;;
48789;SDS011;41718;51.980;5.734;2023-07-28T20:01:45;2.13;;;1.83;;
48789;SDS011;41718;51.980;5.734;2023-07-28T20:06:47;2.63;;;2.20;;
48789;SDS011;41718;51.980;5.734;2023-07-28T20:11:49;3.65;;;2.28;;
48789;SDS011;41718;51.980;5.734;2023-07-28T20:16:50;1.45;;;1.33;;
48789;SDS011;41718;51.980;5.734;2023-07-28T20:21:55;3.30;;;2.17;;
48789;SDS011;41718;51.980;5.734;2023-07-28T20:26:57;2.10;;;1.90;;
48789;SDS011;41718;51.980;5.734;2023-07-28T20:31:58;2.88;;;1.80;;
48789;SDS011;41718;51.980;5.734;2023-07-28T20:37:03;5.00;;;2.13;;
48789;SDS011;41718;51.980;5.734;2023-07-28T20:42:05;2.10;;;1.90;;
48789;SDS011;41718;51.980;5.734;2023-07-28T20:47:06;2.42;;;1.85;;
48789;SDS011;41718;51.980;5.734;2023-07-28T20:52:08;3.03;;;1.70;;
48789;SDS011;41718;51.980;5.734;2023-07-28T20:57:10;2.75;;;2.10;;
48789;SDS011;41718;51.980;5.734;2023-07-28T21:02:12;4.47;;;2.05;;
48789;SDS011;41718;51.980;5.734;2023-07-28T21:07:16;3.33;;;2.60;;
48789;SDS011;41718;51.980;5.734;2023-07-28T21:12:18;2.67;;;2.03;;
48789;SDS011;41718;51.980;5.734;2023-07-28T21:17:23;3.10;;;1.88;;
48789;SDS011;41718;51.980;5.734;2023-07-28T21:22:25;5.47;;;3.08;;
48789;SDS011;41718;51.980;5.734;2023-07-28T21:27:27;3.90;;;3.40;;
48789;SDS011;41718;51.980;5.734;2023-07-28T21:32:29;3.17;;;2.78;;
48789;SDS011;41718;51.980;5.734;2023-07-28T21:37:33;2.95;;;2.55;;
48789;SDS011;41718;51.980;5.734;2023-07-28T21:42:35;4.10;;;2.90;;
48789;SDS011;41718;51.980;5.734;2023-07-28T21:47:45;5.90;;;2.83;;
48789;SDS011;41718;51.980;5.734;2023-07-28T21:52:50;6.20;;;3.10;;
48789;SDS011;41718;51.980;5.734;2023-07-28T21:57:52;4.18;;;3.75;;
48789;SDS011;41718;51.980;5.734;2023-07-28T22:02:53;4.55;;;3.78;;
48789;SDS011;41718;51.980;5.734;2023-07-28T22:08:06;5.25;;;3.72;;
48789;SDS011;41718;51.980;5.734;2023-07-28T22:13:10;10.30;;;3.65;;
48789;SDS011;41718;51.980;5.734;2023-07-28T22:18:11;5.72;;;2.80;;
48789;SDS011;41718;51.980;5.734;2023-07-28T22:23:13;7.20;;;3.38;;
48789;SDS011;41718;51.980;5.734;2023-07-28T22:28:15;15.70;;;3.95;;
48789;SDS011;41718;51.980;5.734;2023-07-28T22:33:17;5.43;;;3.33;;
48789;SDS011;41718;51.980;5.734;2023-07-28T22:38:18;3.97;;;3.53;;
48789;SDS011;41718;51.980;5.734;2023-07-28T22:43:20;3.97;;;3.03;;
48789;SDS011;41718;51.980;5.734;2023-07-28T22:48:28;7.28;;;3.33;;
48789;SDS011;41718;51.980;5.734;2023-07-28T22:53:29;4.10;;;3.17;;
48789;SDS011;41718;51.980;5.734;2023-07-28T22:58:35;4.40;;;3.13;;
48789;SDS011;41718;51.980;5.734;2023-07-28T23:03:37;5.85;;;4.13;;
48789;SDS011;41718;51.980;5.734;2023-07-28T23:08:38;4.07;;;3.20;;
48789;SDS011;41718;51.980;5.734;2023-07-28T23:13:40;4.00;;;3.33;;
48789;SDS011;41718;51.980;5.734;2023-07-28T23:18:41;3.65;;;2.95;;
48789;SDS011;41718;51.980;5.734;2023-07-28T23:23:43;6.28;;;3.75;;
48789;SDS011;41718;51.980;5.734;2023-07-28T23:28:45;6.53;;;3.97;;
48789;SDS011;41718;51.980;5.734;2023-07-28T23:33:46;3.42;;;2.88;;
48789;SDS011;41718;51.980;5.734;2023-07-28T23:38:48;3.80;;;3.30;;
48789;SDS011;41718;51.980;5.734;2023-07-28T23:43:50;6.15;;;3.03;;
48789;SDS011;41718;51.980;5.734;2023-07-28T23:48:54;5.40;;;3.78;;
48789;SDS011;41718;51.980;5.734;2023-07-28T23:53:56;4.03;;;3.28;;
48789;SDS011;41718;51.980;5.734;2023-07-28T23:58:57;3.80;;;2.83;;
